sensor_id;sensor_type;location;lat;lon;timestamp;pressure;altitude;pressure_sealevel;temperature;humidity
70370;BME280;57790;51.356;-2.906;2023-02-28T00:02:41;103585.19;;;7.19;100.00
70370;BME280;57790;51.356;-2.906;2023-02-28T00:05:42;103589.69;;;7.17;100.00
70370;BME280;57790;51.356;-2.906;2023-02-28T00:08:42;103588.75;;;7.18;100.00
70370;BME280;57790;51.356;-2.906;2023-02-28T00:11:43;103589.84;;;7.14;100.00
70370;BME280;57790;51.356;-2.906;2023-02-28T00:14:43;103588.19;;;7.11;100.00
70370;BME280;57790;51.356;-2.906;2023-02-28T00:17:43;103582.19;;;7.08;100.00
70370;BME280;57790;51.356;-2.906;2023-02-28T00:20:44;103586.75;;;7.04;100.00
70370;BME280;57790;51.356;-2.906;2023-02-28T00:23:45;103583.53;;;6.98;100.00
70370;BME280;57790;51.356;-2.906;2023-02-28T00:26:46;103589.66;;;6.98;100.00
70370;BME280;57790;51.356;-2.906;2023-02-28T00:29:46;103591.59;;;6.95;100.00
70370;BME280;57790;51.356;-2.906;2023-02-28T00:32:48;103579.91;;;7.00;100.00
70370;BME280;57790;51.356;-2.906;2023-02-28T00:35:48;103594.16;;;6.96;100.00
70370;BME280;57790;51.356;-2.906;2023-02-28T00:38:49;103595.97;;;6.94;100.00
70370;BME280;57790;51.356;-2.906;2023-02-28T00:41:49;103589.16;;;6.90;100.00
70370;BME280;57790;51.356;-2.906;2023-02-28T00:44:50;103592.84;;;6.86;100.00
70370;BME280;57790;51.356;-2.906;2023-02-28T00:47:50;103597.19;;;6.87;100.00
70370;BME280;57790;51.356;-2.906;2023-02-28T00:50:51;103594.63;;;6.85;100.00
70370;BME280;57790;51.356;-2.906;2023-02-28T00:53:51;103595.47;;;6.86;100.00
70370;BME280;57790;51.356;-2.906;2023-02-28T00:56:51;103594.94;;;6.78;100.00
70370;BME280;57790;51.356;-2.906;2023-02-28T00:59:52;103597.66;;;6.76;100.00
70370;BME280;57790;51.356;-2.906;2023-02-28T01:02:54;103598.59;;;6.75;100.00
70370;BME280;57790;51.356;-2.906;2023-02-28T01:05:54;103603.78;;;6.77;100.00
70370;BME280;57790;51.356;-2.906;2023-02-28T01:08:55;103597.09;;;6.70;100.00
70370;BME280;57790;51.356;-2.906;2023-02-28T01:11:55;103607.56;;;6.71;100.00
70370;BME280;57790;51.356;-2.906;2023-02-28T01:14:55;103607.69;;;6.68;100.00
70370;BME280;57790;51.356;-2.906;2023-02-28T01:17:56;103620.09;;;6.66;100.00
70370;BME280;57790;51.356;-2.906;2023-02-28T01:20:56;103623.69;;;6.64;100.00
70370;BME280;57790;51.356;-2.906;2023-02-28T01:23:58;103621.13;;;6.62;100.00
70370;BME280;57790;51.356;-2.906;2023-02-28T01:26:58;103618.41;;;6.64;100.00
70370;BME280;57790;51.356;-2.906;2023-02-28T01:29:59;103614.00;;;6.64;100.00
70370;BME280;57790;51.356;-2.906;2023-02-28T01:33:00;103618.34;;;6.65;100.00
70370;BME280;57790;51.356;-2.906;2023-02-28T01:36:05;103618.47;;;6.62;100.00
70370;BME280;57790;51.356;-2.906;2023-02-28T01:39:06;103616.78;;;6.61;100.00
70370;BME280;57790;51.356;-2.906;2023-02-28T01:42:09;103610.84;;;6.56;100.00
70370;BME280;57790;51.356;-2.906;2023-02-28T01:45:26;103603.88;;;6.55;100.00
70370;BME280;57790;51.356;-2.906;2023-02-28T01:48:36;103602.22;;;6.52;100.00
70370;BME280;57790;51.356;-2.906;2023-02-28T01:51:46;103605.97;;;6.47;100.00
70370;BME280;57790;51.356;-2.906;2023-02-28T01:54:53;103604.97;;;6.49;100.00
70370;BME280;57790;51.356;-2.906;2023-02-28T01:57:57;103605.81;;;6.50;100.00
70370;BME280;57790;51.356;-2.906;2023-02-28T02:00:58;103610.50;;;6.43;100.00
70370;BME280;57790;51.356;-2.906;2023-02-28T02:04:01;103606.88;;;6.46;100.00
70370;BME280;57790;51.356;-2.906;2023-02-28T02:07:03;103605.31;;;6.42;100.00
70370;BME280;57790;51.356;-2.906;2023-02-28T02:10:11;103602.81;;;6.39;100.00
70370;BME280;57790;51.356;-2.906;2023-02-28T02:40:46;103596.72;;;6.16;100.00
70370;BME280;57790;51.356;-2.906;2023-02-28T02:44:03;103595.72;;;6.19;100.00
70370;BME280;57790;51.356;-2.906;2023-02-28T02:47:12;103596.06;;;6.11;100.00
70370;BME280;57790;51.356;-2.906;2023-02-28T02:50:22;103597.81;;;6.11;100.00
70370;BME280;57790;51.356;-2.906;2023-02-28T02:53:37;103590.72;;;6.13;100.00
70370;BME280;57790;51.356;-2.906;2023-02-28T02:56:39;103583.91;;;6.07;100.00
70370;BME280;57790;51.356;-2.906;2023-02-28T02:59:42;103584.03;;;6.04;100.00
70370;BME280;57790;51.356;-2.906;2023-02-28T03:02:44;103579.47;;;6.09;100.00
70370;BME280;57790;51.356;-2.906;2023-02-28T03:05:48;103584.66;;;6.11;100.00
70370;BME280;57790;51.356;-2.906;2023-02-28T03:08:49;103584.81;;;6.06;100.00
70370;BME280;57790;51.356;-2.906;2023-02-28T03:11:52;103586.06;;;5.97;100.00
70370;BME280;57790;51.356;-2.906;2023-02-28T03:18:16;103588.09;;;5.91;100.00
70370;BME280;57790;51.356;-2.906;2023-02-28T03:31:36;103579.75;;;5.80;100.00
70370;BME280;57790;51.356;-2.906;2023-02-28T03:34:42;103583.31;;;5.79;100.00
70370;BME280;57790;51.356;-2.906;2023-02-28T03:37:47;103584.16;;;5.79;100.00
70370;BME280;57790;51.356;-2.906;2023-02-28T03:40:55;103585.03;;;5.78;100.00
70370;BME280;57790;51.356;-2.906;2023-02-28T03:44:06;103584.16;;;5.79;100.00
70370;BME280;57790;51.356;-2.906;2023-02-28T03:47:41;103589.28;;;5.82;100.00
70370;BME280;57790;51.356;-2.906;2023-02-28T03:50:47;103587.50;;;5.83;100.00
70370;BME280;57790;51.356;-2.906;2023-02-28T03:54:04;103587.44;;;5.84;100.00
70370;BME280;57790;51.356;-2.906;2023-02-28T04:00:40;103587.56;;;5.81;100.00
70370;BME280;57790;51.356;-2.906;2023-02-28T04:03:44;103589.34;;;5.81;100.00
70370;BME280;57790;51.356;-2.906;2023-02-28T04:06:44;103588.38;;;5.83;100.00
70370;BME280;57790;51.356;-2.906;2023-02-28T04:09:45;103599.69;;;5.85;100.00
70370;BME280;57790;51.356;-2.906;2023-02-28T04:12:45;103600.63;;;5.84;100.00
70370;BME280;57790;51.356;-2.906;2023-02-28T04:15:45;103602.47;;;5.82;100.00
70370;BME280;57790;51.356;-2.906;2023-02-28T04:18:46;103600.47;;;5.87;100.00
70370;BME280;57790;51.356;-2.906;2023-02-28T04:21:49;103606.53;;;5.89;100.00
70370;BME280;57790;51.356;-2.906;2023-02-28T04:24:50;103604.03;;;5.86;100.00
70370;BME280;57790;51.356;-2.906;2023-02-28T04:27:50;103605.69;;;5.89;100.00
70370;BME280;57790;51.356;-2.906;2023-02-28T04:30:55;103596.91;;;5.90;100.00
70370;BME280;57790;51.356;-2.906;2023-02-28T04:33:56;103596.91;;;5.90;100.00
70370;BME280;57790;51.356;-2.906;2023-02-28T04:36:57;103589.00;;;5.90;100.00
70370;BME280;57790;51.356;-2.906;2023-02-28T04:39:57;103594.19;;;5.91;100.00
70370;BME280;57790;51.356;-2.906;2023-02-28T04:42:57;103592.53;;;5.89;100.00
70370;BME280;57790;51.356;-2.906;2023-02-28T04:46:01;103598.66;;;5.89;100.00
70370;BME280;57790;51.356;-2.906;2023-02-28T04:49:02;103617.91;;;5.91;100.00
70370;BME280;57790;51.356;-2.906;2023-02-28T04:52:02;103612.47;;;5.96;100.00
70370;BME280;57790;51.356;-2.906;2023-02-28T04:55:03;103628.34;;;5.94;100.00
70370;BME280;57790;51.356;-2.906;2023-02-28T04:58:04;103618.75;;;5.92;100.00
70370;BME280;57790;51.356;-2.906;2023-02-28T05:01:23;103620.47;;;5.93;100.00
70370;BME280;57790;51.356;-2.906;2023-02-28T05:04:24;103624.00;;;5.93;100.00
70370;BME280;57790;51.356;-2.906;2023-02-28T05:07:24;103623.78;;;5.98;100.00
70370;BME280;57790;51.356;-2.906;2023-02-28T05:10:25;103618.53;;;5.98;100.00
70370;BME280;57790;51.356;-2.906;2023-02-28T05:13:25;103627.16;;;6.02;100.00
70370;BME280;57790;51.356;-2.906;2023-02-28T05:16:25;103635.13;;;6.00;100.00
70370;BME280;57790;51.356;-2.906;2023-02-28T05:19:26;103628.06;;;6.01;100.00
70370;BME280;57790;51.356;-2.906;2023-02-28T05:22:26;103631.56;;;6.01;100.00
70370;BME280;57790;51.356;-2.906;2023-02-28T05:25:27;103631.50;;;6.03;100.00
70370;BME280;57790;51.356;-2.906;2023-02-28T05:28:27;103627.09;;;6.03;100.00
70370;BME280;57790;51.356;-2.906;2023-02-28T05:31:27;103635.78;;;6.05;100.00
70370;BME280;57790;51.356;-2.906;2023-02-28T05:34:28;103644.44;;;6.09;100.00
70370;BME280;57790;51.356;-2.906;2023-02-28T05:37:28;103649.69;;;6.09;100.00
70370;BME280;57790;51.356;-2.906;2023-02-28T05:40:29;103637.31;;;6.11;100.00
70370;BME280;57790;51.356;-2.906;2023-02-28T05:43:29;103640.75;;;6.13;100.00
70370;BME280;57790;51.356;-2.906;2023-02-28T05:46:29;103650.31;;;6.15;100.00
70370;BME280;57790;51.356;-2.906;2023-02-28T05:49:30;103651.09;;;6.17;100.00
70370;BME280;57790;51.356;-2.906;2023-02-28T05:52:30;103643.31;;;6.14;100.00
70370;BME280;57790;51.356;-2.906;2023-02-28T05:55:31;103640.63;;;6.16;100.00
70370;BME280;57790;51.356;-2.906;2023-02-28T05:58:31;103652.06;;;6.15;100.00
70370;BME280;57790;51.356;-2.906;2023-02-28T06:01:38;103639.84;;;6.14;100.00
70370;BME280;57790;51.356;-2.906;2023-02-28T06:04:39;103638.97;;;6.13;100.00
70370;BME280;57790;51.356;-2.906;2023-02-28T06:07:41;103653.28;;;6.06;100.00
70370;BME280;57790;51.356;-2.906;2023-02-28T06:10:41;103654.28;;;6.04;100.00
70370;BME280;57790;51.356;-2.906;2023-02-28T06:13:41;103651.97;;;5.96;100.00
70370;BME280;57790;51.356;-2.906;2023-02-28T06:16:42;103653.69;;;5.97;100.00
70370;BME280;57790;51.356;-2.906;2023-02-28T06:19:43;103649.31;;;5.96;100.00
70370;BME280;57790;51.356;-2.906;2023-02-28T06:22:43;103652.75;;;5.98;100.00
70370;BME280;57790;51.356;-2.906;2023-02-28T06:25:45;103657.91;;;6.01;100.00
70370;BME280;57790;51.356;-2.906;2023-02-28T06:28:46;103659.72;;;5.99;100.00
70370;BME280;57790;51.356;-2.906;2023-02-28T06:31:47;103645.59;;;6.02;100.00
70370;BME280;57790;51.356;-2.906;2023-02-28T06:34:48;103642.16;;;6.00;100.00
70370;BME280;57790;51.356;-2.906;2023-02-28T06:37:49;103645.66;;;6.00;100.00
70370;BME280;57790;51.356;-2.906;2023-02-28T06:40:54;103646.50;;;6.01;100.00
70370;BME280;57790;51.356;-2.906;2023-02-28T06:43:54;103641.44;;;5.96;100.00
70370;BME280;57790;51.356;-2.906;2023-02-28T06:46:55;103655.50;;;5.95;100.00
70370;BME280;57790;51.356;-2.906;2023-02-28T06:49:55;103645.72;;;5.99;100.00
70370;BME280;57790;51.356;-2.906;2023-02-28T06:52:56;103652.06;;;5.93;100.00
70370;BME280;57790;51.356;-2.906;2023-02-28T06:55:56;103654.59;;;5.96;100.00
70370;BME280;57790;51.356;-2.906;2023-02-28T06:58:57;103658.94;;;5.97;100.00
70370;BME280;57790;51.356;-2.906;2023-02-28T07:01:57;103665.78;;;6.01;100.00
70370;BME280;57790;51.356;-2.906;2023-02-28T07:04:57;103664.22;;;5.97;100.00
70370;BME280;57790;51.356;-2.906;2023-02-28T07:07:58;103658.25;;;5.92;100.00
70370;BME280;57790;51.356;-2.906;2023-02-28T07:10:58;103641.66;;;5.90;100.00
70370;BME280;57790;51.356;-2.906;2023-02-28T07:13:59;103668.84;;;5.90;100.00
70370;BME280;57790;51.356;-2.906;2023-02-28T07:16:59;103667.00;;;5.92;100.00
70370;BME280;57790;51.356;-2.906;2023-02-28T07:19:59;103665.38;;;5.88;100.00
70370;BME280;57790;51.356;-2.906;2023-02-28T07:23:00;103673.41;;;5.85;100.00
70370;BME280;57790;51.356;-2.906;2023-02-28T07:26:00;103665.38;;;5.88;100.00
70370;BME280;57790;51.356;-2.906;2023-02-28T07:29:01;103676.66;;;5.92;100.00
70370;BME280;57790;51.356;-2.906;2023-02-28T07:32:02;103675.81;;;5.91;100.00
70370;BME280;57790;51.356;-2.906;2023-02-28T07:35:03;103681.00;;;5.94;100.00
70370;BME280;57790;51.356;-2.906;2023-02-28T07:38:04;103673.81;;;5.98;100.00
70370;BME280;57790;51.356;-2.906;2023-02-28T07:41:04;103678.28;;;5.96;100.00
70370;BME280;57790;51.356;-2.906;2023-02-28T07:44:05;103673.03;;;5.96;100.00
70370;BME280;57790;51.356;-2.906;2023-02-28T07:47:08;103676.25;;;6.03;100.00
70370;BME280;57790;51.356;-2.906;2023-02-28T07:50:12;103683.09;;;6.08;100.00
70370;BME280;57790;51.356;-2.906;2023-02-28T07:53:13;103676.63;;;6.15;100.00
70370;BME280;57790;51.356;-2.906;2023-02-28T07:56:13;103684.53;;;6.15;100.00
70370;BME280;57790;51.356;-2.906;2023-02-28T07:59:14;103684.47;;;6.17;100.00
70370;BME280;57790;51.356;-2.906;2023-02-28T08:02:16;103694.03;;;6.19;100.00
70370;BME280;57790;51.356;-2.906;2023-02-28T08:05:17;103685.19;;;6.20;100.00
70370;BME280;57790;51.356;-2.906;2023-02-28T08:08:17;103692.19;;;6.21;100.00
70370;BME280;57790;51.356;-2.906;2023-02-28T08:11:18;103689.56;;;6.21;100.00
70370;BME280;57790;51.356;-2.906;2023-02-28T08:14:19;103692.88;;;6.26;100.00
70370;BME280;57790;51.356;-2.906;2023-02-28T08:17:19;103686.63;;;6.29;100.00
70370;BME280;57790;51.356;-2.906;2023-02-28T08:20:19;103684.91;;;6.28;100.00
70370;BME280;57790;51.356;-2.906;2023-02-28T08:23:20;103684.72;;;6.33;100.00
70370;BME280;57790;51.356;-2.906;2023-02-28T08:26:20;103684.59;;;6.36;100.00
70370;BME280;57790;51.356;-2.906;2023-02-28T08:29:21;103685.28;;;6.41;100.00
70370;BME280;57790;51.356;-2.906;2023-02-28T08:32:21;103683.50;;;6.41;100.00
70370;BME280;57790;51.356;-2.906;2023-02-28T08:35:22;103692.84;;;6.48;100.00
70370;BME280;57790;51.356;-2.906;2023-02-28T08:38:23;103690.97;;;6.52;100.00
70370;BME280;57790;51.356;-2.906;2023-02-28T08:41:23;103690.13;;;6.51;100.00
70370;BME280;57790;51.356;-2.906;2023-02-28T08:44:24;103693.34;;;6.58;100.00
70370;BME280;57790;51.356;-2.906;2023-02-28T08:47:24;103697.69;;;6.59;100.00
70370;BME280;57790;51.356;-2.906;2023-02-28T08:50:24;103693.22;;;6.61;100.00
70370;BME280;57790;51.356;-2.906;2023-02-28T08:53:25;103692.28;;;6.62;100.00
70370;BME280;57790;51.356;-2.906;2023-02-28T08:56:27;103696.03;;;6.56;100.00
70370;BME280;57790;51.356;-2.906;2023-02-28T08:59:29;103701.81;;;6.66;100.00
70370;BME280;57790;51.356;-2.906;2023-02-28T09:02:31;103701.19;;;6.60;100.00
70370;BME280;57790;51.356;-2.906;2023-02-28T09:05:31;103689.50;;;6.65;100.00
70370;BME280;57790;51.356;-2.906;2023-02-28T09:08:32;103689.47;;;6.67;100.00
70370;BME280;57790;51.356;-2.906;2023-02-28T09:11:34;103692.56;;;6.76;100.00
70370;BME280;57790;51.356;-2.906;2023-02-28T09:14:35;103691.91;;;6.71;100.00
70370;BME280;57790;51.356;-2.906;2023-02-28T09:17:35;103682.94;;;6.75;100.00
70370;BME280;57790;51.356;-2.906;2023-02-28T09:20:39;103681.16;;;6.76;100.00
70370;BME280;57790;51.356;-2.906;2023-02-28T09:23:48;103682.28;;;6.70;100.00
70370;BME280;57790;51.356;-2.906;2023-02-28T09:26:49;103688.34;;;6.72;100.00
70370;BME280;57790;51.356;-2.906;2023-02-28T09:29:49;103693.91;;;6.66;100.00
70370;BME280;57790;51.356;-2.906;2023-02-28T09:32:50;103691.72;;;6.76;100.00
70370;BME280;57790;51.356;-2.906;2023-02-28T09:36:01;103698.63;;;6.78;100.00
70370;BME280;57790;51.356;-2.906;2023-02-28T09:39:03;103697.59;;;6.82;100.00
70370;BME280;57790;51.356;-2.906;2023-02-28T09:42:04;103694.19;;;6.80;100.00
70370;BME280;57790;51.356;-2.906;2023-02-28T09:45:32;103684.34;;;6.84;100.00
70370;BME280;57790;51.356;-2.906;2023-02-28T09:48:35;103685.06;;;6.88;100.00
70370;BME280;57790;51.356;-2.906;2023-02-28T09:54:51;103684.94;;;6.91;100.00
70370;BME280;57790;51.356;-2.906;2023-02-28T09:57:52;103691.66;;;6.98;100.00
70370;BME280;57790;51.356;-2.906;2023-02-28T10:04:53;103700.50;;;6.97;100.00
70370;BME280;57790;51.356;-2.906;2023-02-28T10:11:07;103683.28;;;7.08;100.00
70370;BME280;57790;51.356;-2.906;2023-02-28T10:14:21;103691.31;;;7.05;100.00
70370;BME280;57790;51.356;-2.906;2023-02-28T10:17:25;103678.00;;;7.08;100.00
70370;BME280;57790;51.356;-2.906;2023-02-28T10:20:28;103683.88;;;7.15;100.00
70370;BME280;57790;51.356;-2.906;2023-02-28T10:23:35;103677.53;;;7.19;100.00
70370;BME280;57790;51.356;-2.906;2023-02-28T10:26:36;103675.81;;;7.18;100.00
70370;BME280;57790;51.356;-2.906;2023-02-28T10:29:39;103672.94;;;7.24;100.00
70370;BME280;57790;51.356;-2.906;2023-02-28T10:32:47;103673.78;;;7.25;100.00
70370;BME280;57790;51.356;-2.906;2023-02-28T10:35:49;103668.16;;;7.32;100.00
70370;BME280;57790;51.356;-2.906;2023-02-28T10:38:50;103675.91;;;7.35;100.00
70370;BME280;57790;51.356;-2.906;2023-02-28T10:41:50;103667.38;;;7.30;100.00
70370;BME280;57790;51.356;-2.906;2023-02-28T10:51:16;103663.97;;;7.47;100.00
70370;BME280;57790;51.356;-2.906;2023-02-28T10:54:19;103669.22;;;7.47;100.00
70370;BME280;57790;51.356;-2.906;2023-02-28T10:57:23;103664.81;;;7.47;100.00
70370;BME280;57790;51.356;-2.906;2023-02-28T11:00:25;103655.69;;;7.55;100.00
70370;BME280;57790;51.356;-2.906;2023-02-28T11:03:31;103667.97;;;7.56;100.00
70370;BME280;57790;51.356;-2.906;2023-02-28T11:06:34;103674.88;;;7.58;100.00
70370;BME280;57790;51.356;-2.906;2023-02-28T11:09:39;103671.41;;;7.58;100.00
70370;BME280;57790;51.356;-2.906;2023-02-28T11:12:41;103670.75;;;7.53;100.00
70370;BME280;57790;51.356;-2.906;2023-02-28T11:15:55;103668.59;;;7.61;100.00
70370;BME280;57790;51.356;-2.906;2023-02-28T11:18:57;103656.19;;;7.63;100.00
70370;BME280;57790;51.356;-2.906;2023-02-28T11:22:00;103667.81;;;7.59;100.00
70370;BME280;57790;51.356;-2.906;2023-02-28T11:25:07;103663.09;;;7.65;100.00
70370;BME280;57790;51.356;-2.906;2023-02-28T11:28:31;103664.53;;;7.72;100.00
70370;BME280;57790;51.356;-2.906;2023-02-28T11:31:32;103662.75;;;7.73;100.00
70370;BME280;57790;51.356;-2.906;2023-02-28T11:34:33;103658.19;;;7.76;100.00
70370;BME280;57790;51.356;-2.906;2023-02-28T11:37:33;103654.13;;;7.69;100.00
70370;BME280;57790;51.356;-2.906;2023-02-28T11:44:05;103660.63;;;7.81;100.00
70370;BME280;57790;51.356;-2.906;2023-02-28T11:47:18;103658.97;;;7.79;100.00
70370;BME280;57790;51.356;-2.906;2023-02-28T11:57:19;103642.78;;;7.86;100.00
70370;BME280;57790;51.356;-2.906;2023-02-28T12:07:12;103633.53;;;7.95;100.00
70370;BME280;57790;51.356;-2.906;2023-02-28T12:13:26;103637.38;;;8.06;100.00
70370;BME280;57790;51.356;-2.906;2023-02-28T12:26:42;103629.63;;;8.21;100.00
70370;BME280;57790;51.356;-2.906;2023-02-28T12:33:16;103619.22;;;8.18;100.00
70370;BME280;57790;51.356;-2.906;2023-02-28T12:36:19;103612.00;;;8.21;100.00
70370;BME280;57790;51.356;-2.906;2023-02-28T12:39:35;103610.97;;;8.24;100.00
70370;BME280;57790;51.356;-2.906;2023-02-28T12:42:51;103608.03;;;8.30;100.00
70370;BME280;57790;51.356;-2.906;2023-02-28T12:46:19;103604.19;;;8.37;100.00
70370;BME280;57790;51.356;-2.906;2023-02-28T12:49:29;103601.69;;;8.34;100.00
70370;BME280;57790;51.356;-2.906;2023-02-28T12:59:48;103592.66;;;8.38;100.00
70370;BME280;57790;51.356;-2.906;2023-02-28T13:09:38;103580.25;;;8.40;100.00
70370;BME280;57790;51.356;-2.906;2023-02-28T13:12:52;103577.38;;;8.45;100.00
70370;BME280;57790;51.356;-2.906;2023-02-28T13:19:10;103566.97;;;8.42;100.00
70370;BME280;57790;51.356;-2.906;2023-02-28T13:22:39;103564.69;;;8.51;100.00
70370;BME280;57790;51.356;-2.906;2023-02-28T13:29:01;103554.97;;;8.52;100.00
70370;BME280;57790;51.356;-2.906;2023-02-28T13:38:16;103529.66;;;8.63;100.00
70370;BME280;57790;51.356;-2.906;2023-02-28T13:44:29;103522.41;;;8.67;100.00
70370;BME280;57790;51.356;-2.906;2023-02-28T13:50:37;103521.66;;;8.65;100.00
70370;BME280;57790;51.356;-2.906;2023-02-28T13:54:03;103510.41;;;8.61;100.00
70370;BME280;57790;51.356;-2.906;2023-02-28T14:00:46;103516.28;;;8.67;100.00
70370;BME280;57790;51.356;-2.906;2023-02-28T14:07:22;103507.41;;;8.68;100.00
70370;BME280;57790;51.356;-2.906;2023-02-28T14:10:28;103509.66;;;8.75;100.00
70370;BME280;57790;51.356;-2.906;2023-02-28T14:13:44;103509.75;;;8.74;100.00
70370;BME280;57790;51.356;-2.906;2023-02-28T14:16:46;103510.34;;;8.79;100.00
70370;BME280;57790;51.356;-2.906;2023-02-28T14:19:47;103505.06;;;8.79;100.00
70370;BME280;57790;51.356;-2.906;2023-02-28T14:23:07;103506.16;;;8.75;100.00
70370;BME280;57790;51.356;-2.906;2023-02-28T14:36:43;103491.75;;;8.80;100.00
70370;BME280;57790;51.356;-2.906;2023-02-28T14:39:45;103477.25;;;8.87;100.00
70370;BME280;57790;51.356;-2.906;2023-02-28T14:42:54;103472.75;;;8.89;100.00
70370;BME280;57790;51.356;-2.906;2023-02-28T14:45:58;103476.41;;;8.87;100.00
70370;BME280;57790;51.356;-2.906;2023-02-28T14:48:59;103467.53;;;8.88;100.00
70370;BME280;57790;51.356;-2.906;2023-02-28T14:52:09;103469.59;;;8.99;100.00
70370;BME280;57790;51.356;-2.906;2023-02-28T14:55:17;103460.00;;;8.96;100.00
70370;BME280;57790;51.356;-2.906;2023-02-28T14:58:30;103453.03;;;8.95;100.00
70370;BME280;57790;51.356;-2.906;2023-02-28T15:01:31;103451.22;;;8.95;100.00
70370;BME280;57790;51.356;-2.906;2023-02-28T15:04:34;103445.78;;;8.99;100.00
70370;BME280;57790;51.356;-2.906;2023-02-28T15:07:35;103435.34;;;8.95;100.00
70370;BME280;57790;51.356;-2.906;2023-02-28T15:10:36;103446.72;;;8.98;100.00
70370;BME280;57790;51.356;-2.906;2023-02-28T15:13:45;103432.56;;;8.99;100.00
70370;BME280;57790;51.356;-2.906;2023-02-28T15:16:52;103429.81;;;9.00;100.00
70370;BME280;57790;51.356;-2.906;2023-02-28T15:19:56;103432.38;;;9.02;100.00
70370;BME280;57790;51.356;-2.906;2023-02-28T15:22:57;103425.47;;;8.99;100.00
70370;BME280;57790;51.356;-2.906;2023-02-28T15:25:58;103423.78;;;8.98;100.00
70370;BME280;57790;51.356;-2.906;2023-02-28T15:29:01;103417.69;;;8.96;100.00
70370;BME280;57790;51.356;-2.906;2023-02-28T15:32:06;103412.06;;;9.02;100.00
70370;BME280;57790;51.356;-2.906;2023-02-28T15:38:27;103411.78;;;9.07;100.00
70370;BME280;57790;51.356;-2.906;2023-02-28T15:41:29;103410.84;;;9.08;100.00
70370;BME280;57790;51.356;-2.906;2023-02-28T15:44:34;103410.09;;;9.06;100.00
70370;BME280;57790;51.356;-2.906;2023-02-28T15:47:35;103404.13;;;9.02;100.00
70370;BME280;57790;51.356;-2.906;2023-02-28T15:50:36;103398.06;;;9.00;100.00
70370;BME280;57790;51.356;-2.906;2023-02-28T15:54:00;103400.53;;;9.03;100.00
70370;BME280;57790;51.356;-2.906;2023-02-28T15:57:07;103389.00;;;9.04;100.00
70370;BME280;57790;51.356;-2.906;2023-02-28T16:00:15;103391.66;;;9.04;100.00
70370;BME280;57790;51.356;-2.906;2023-02-28T16:03:27;103383.53;;;9.07;100.00
70370;BME280;57790;51.356;-2.906;2023-02-28T16:06:39;103380.72;;;9.10;100.00
70370;BME280;57790;51.356;-2.906;2023-02-28T16:09:41;103382.44;;;9.11;100.00
70370;BME280;57790;51.356;-2.906;2023-02-28T16:12:42;103377.66;;;9.18;100.00
70370;BME280;57790;51.356;-2.906;2023-02-28T16:15:43;103373.38;;;9.15;100.00
70370;BME280;57790;51.356;-2.906;2023-02-28T16:18:44;103377.56;;;9.19;100.00
70370;BME280;57790;51.356;-2.906;2023-02-28T16:21:48;103369.78;;;9.16;100.00
70370;BME280;57790;51.356;-2.906;2023-02-28T16:24:48;103368.84;;;9.17;100.00
70370;BME280;57790;51.356;-2.906;2023-02-28T16:27:50;103372.25;;;9.19;100.00
70370;BME280;57790;51.356;-2.906;2023-02-28T16:30:54;103381.81;;;9.22;100.00
70370;BME280;57790;51.356;-2.906;2023-02-28T16:33:54;103376.59;;;9.20;100.00
70370;BME280;57790;51.356;-2.906;2023-02-28T16:36:55;103378.22;;;9.23;100.00
70370;BME280;57790;51.356;-2.906;2023-02-28T16:39:55;103386.16;;;9.23;100.00
70370;BME280;57790;51.356;-2.906;2023-02-28T16:42:58;103382.56;;;9.24;100.00
70370;BME280;57790;51.356;-2.906;2023-02-28T16:46:00;103392.50;;;9.20;100.00
70370;BME280;57790;51.356;-2.906;2023-02-28T16:49:01;103387.81;;;9.10;100.00
70370;BME280;57790;51.356;-2.906;2023-02-28T16:52:02;103390.22;;;9.14;100.00
70370;BME280;57790;51.356;-2.906;2023-02-28T16:55:02;103391.38;;;9.24;100.00
70370;BME280;57790;51.356;-2.906;2023-02-28T16:58:03;103393.25;;;9.22;100.00
70370;BME280;57790;51.356;-2.906;2023-02-28T17:01:04;103395.31;;;9.17;100.00
70370;BME280;57790;51.356;-2.906;2023-02-28T17:04:04;103398.38;;;9.10;100.00
70370;BME280;57790;51.356;-2.906;2023-02-28T17:07:06;103392.66;;;9.17;100.00
70370;BME280;57790;51.356;-2.906;2023-02-28T17:13:19;103398.84;;;9.02;100.00
70370;BME280;57790;51.356;-2.906;2023-02-28T17:16:31;103405.31;;;9.12;100.00
70370;BME280;57790;51.356;-2.906;2023-02-28T17:19:32;103410.94;;;9.06;100.00
70370;BME280;57790;51.356;-2.906;2023-02-28T17:22:34;103412.47;;;9.10;100.00
70370;BME280;57790;51.356;-2.906;2023-02-28T17:25:34;103415.63;;;9.17;100.00
70370;BME280;57790;51.356;-2.906;2023-02-28T17:28:34;103422.53;;;9.19;100.00
70370;BME280;57790;51.356;-2.906;2023-02-28T17:31:35;103418.47;;;9.14;100.00
70370;BME280;57790;51.356;-2.906;2023-02-28T17:34:38;103410.25;;;9.18;100.00
70370;BME280;57790;51.356;-2.906;2023-02-28T17:37:39;103426.56;;;9.11;100.00
70370;BME280;57790;51.356;-2.906;2023-02-28T17:40:40;103422.16;;;9.11;100.00
70370;BME280;57790;51.356;-2.906;2023-02-28T17:43:40;103422.91;;;9.13;100.00
70370;BME280;57790;51.356;-2.906;2023-02-28T17:46:41;103423.50;;;9.18;100.00
70370;BME280;57790;51.356;-2.906;2023-02-28T17:49:42;103419.22;;;9.16;100.00
70370;BME280;57790;51.356;-2.906;2023-02-28T17:52:42;103414.97;;;9.13;100.00
70370;BME280;57790;51.356;-2.906;2023-02-28T17:55:43;103411.72;;;9.08;100.00
70370;BME280;57790;51.356;-2.906;2023-02-28T17:58:43;103427.94;;;9.18;100.00
70370;BME280;57790;51.356;-2.906;2023-02-28T18:01:45;103414.69;;;9.18;100.00
70370;BME280;57790;51.356;-2.906;2023-02-28T18:04:45;103417.25;;;9.19;100.00
70370;BME280;57790;51.356;-2.906;2023-02-28T18:07:46;103422.53;;;9.19;100.00
70370;BME280;57790;51.356;-2.906;2023-02-28T18:10:46;103425.00;;;9.22;100.00
70370;BME280;57790;51.356;-2.906;2023-02-28T18:13:49;103417.34;;;9.18;100.00
70370;BME280;57790;51.356;-2.906;2023-02-28T18:16:52;103411.97;;;9.04;100.00
70370;BME280;57790;51.356;-2.906;2023-02-28T18:19:52;103418.88;;;9.06;100.00